Nyk Deneb — 3EOF8 — position and weather

sailwx.info

Track history (hours):
 
Tides and Currents Weather Stations Pressure Air Temp Water Temp Dewpoint Dewpoint Depression Visibility Wind Speed Wind Dir Waves Ship Positions

Nyk Deneb

Last reported at 2014-Jul-29 02:31 UTC. Time now 2014-Jul-29 02:37 UTC.
Position N 33°18' W 126°51'.

Length 294 m; draft 11.6 m.

Type: Ship (hazmat cat A). MMSI: 355717000.

Date/timePositionNaut miles runAvg speedWind from/ knotsBaromVisibWave heightAir tempDewpointWater temp
2014-Jul-29 02:31N 33°18' W 126°51'2318.9
2014-Jul-29 01:20N 33°04' W 126°30'12818.8
2014-Jul-28 18:32N 31°49' W 124°28'1919.0
2014-Jul-28 17:33N 31°37' W 124°10'1919.0
2014-Jul-28 16:33N 31°25' W 123°53'1919.0
2014-Jul-28 15:33N 31°13' W 123°36'1918.9
2014-Jul-28 14:33N 31°02' W 123°19'1918.8
2014-Jul-28 13:33N 30°50' W 123°02'1918.7
2014-Jul-28 12:33N 30°38' W 122°45'1918.6
2014-Jul-28 11:33N 30°27' W 122°28'1918.6
2014-Jul-28 10:34N 30°15' W 122°11'1818.4
2014-Jul-28 09:33N 30°04' W 121°54'1918.5
2014-Jul-28 08:33N 29°52' W 121°37'1818.4
2014-Jul-28 07:33N 29°42' W 121°20'1918.6
2014-Jul-28 06:33N 29°30' W 121°03'1918.7
2014-Jul-28 05:33N 29°19' W 120°46'1919.0
2014-Jul-28 04:33N 29°08' W 120°28'1919.1
2014-Jul-28 03:33N 28°57' W 120°10'1919.1
2014-Jul-28 02:33N 28°46' W 119°52'2619.2
2014-Jul-28 01:13N 28°30' W 119°29'3319.0
2014-Jul-27 23:30N 28°10' W 118°60'4418.9
2014-Jul-27 21:12N 27°44' W 118°20'1218.5
2014-Jul-27 20:33N 27°37' W 118°09'1918.6
2014-Jul-27 19:33N 27°26' W 117°52'2118.2
2014-Jul-27 18:25N 27°14' W 117°33'4018.4
2014-Jul-27 16:14N 26°51' W 116°57'1918.3
2014-Jul-27 15:13N 26°39' W 116°40'1218.2
2014-Jul-27 14:33N 26°32' W 116°30'1918.0
2014-Jul-27 13:31N 26°21' W 116°13'4518.0
2014-Jul-27 11:03N 25°55' W 115°33'2918.2
2014-Jul-27 09:26N 25°37' W 115°07'2218.6
2014-Jul-27 08:17N 25°24' W 114°48'  
Track history (hours):
 
Tides and Currents Weather Stations Pressure Air Temp Water Temp Dewpoint Dewpoint Depression Visibility Wind Speed Wind Dir Waves Ship Positions

Nyk Deneb

Last reported at 2014-Jul-29 02:31 UTC. Time now 2014-Jul-29 02:37 UTC.
Position N 33°18' W 126°51'.

Length 294 m; draft 11.6 m.

Type: Ship (hazmat cat A). MMSI: 355717000.

Date/timePositionNaut miles runAvg speedWind from/ knotsBaromVisibWave heightAir tempDewpointWater temp
2014-Jul-29 02:31N 33°18' W 126°51'2318.9
2014-Jul-29 01:20N 33°04' W 126°30'12818.8
2014-Jul-28 18:32N 31°49' W 124°28'1919.0
2014-Jul-28 17:33N 31°37' W 124°10'1919.0
2014-Jul-28 16:33N 31°25' W 123°53'1919.0
2014-Jul-28 15:33N 31°13' W 123°36'1918.9
2014-Jul-28 14:33N 31°02' W 123°19'1918.8
2014-Jul-28 13:33N 30°50' W 123°02'1918.7
2014-Jul-28 12:33N 30°38' W 122°45'1918.6
2014-Jul-28 11:33N 30°27' W 122°28'1918.6
2014-Jul-28 10:34N 30°15' W 122°11'1818.4
2014-Jul-28 09:33N 30°04' W 121°54'1918.5
2014-Jul-28 08:33N 29°52' W 121°37'1818.4
2014-Jul-28 07:33N 29°42' W 121°20'1918.6
2014-Jul-28 06:33N 29°30' W 121°03'1918.7
2014-Jul-28 05:33N 29°19' W 120°46'1919.0
2014-Jul-28 04:33N 29°08' W 120°28'1919.1
2014-Jul-28 03:33N 28°57' W 120°10'1919.1
2014-Jul-28 02:33N 28°46' W 119°52'2619.2
2014-Jul-28 01:13N 28°30' W 119°29'3319.0
2014-Jul-27 23:30N 28°10' W 118°60'4418.9
2014-Jul-27 21:12N 27°44' W 118°20'1218.5
2014-Jul-27 20:33N 27°37' W 118°09'1918.6
2014-Jul-27 19:33N 27°26' W 117°52'2118.2
2014-Jul-27 18:25N 27°14' W 117°33'4018.4
2014-Jul-27 16:14N 26°51' W 116°57'1918.3
2014-Jul-27 15:13N 26°39' W 116°40'1218.2
2014-Jul-27 14:33N 26°32' W 116°30'1918.0
2014-Jul-27 13:31N 26°21' W 116°13'4518.0
2014-Jul-27 11:03N 25°55' W 115°33'2918.2
2014-Jul-27 09:26N 25°37' W 115°07'2218.6
2014-Jul-27 08:17N 25°24' W 114°48'  

Dump ship's entire track history